Time;durP1;ratioP1;P1;durP2;ratioP2;P2;SDS_P1;SDS_P2;PMS_P1;PMS_P2;Temp;Humidity;BMP_temperature;BMP_pressure;BME280_temperature;BME280_humidity;BME280_pressure;Samples;Min_cycle;Max_cycle;Signal;HPM_P1;HPM_P2
2020/12/12 11:32:30;;;;;;;11.13;2.37;;;9.90;99.90;;;;;;5115218;27;954808;-63
2020/12/12 11:37:44;;;;;;;4.67;1.43;;;9.40;99.90;;;;;;5129565;28;20035;-62
2020/12/12 11:40:17;;;;;;;6.67;1.63;;;9.20;99.90;;;;;;5127504;28;20061;-62
2020/12/12 11:47:40;;;;;;;7.40;1.77;;;9.20;99.90;;;;;;5107742;28;20072;-62
2020/12/12 11:50:06;;;;;;;4.90;1.53;;;9.20;99.90;;;;;;5130432;28;20027;-62
2020/12/12 11:52:36;;;;;;;6.60;2.03;;;9.30;99.90;;;;;;5125709;28;20039;-62
2020/12/12 11:55:04;;;;;;;5.20;2.63;;;9.20;99.90;;;;;;5095111;28;20425;-62
2020/12/12 11:57:31;;;;;;;4.60;1.80;;;9.30;99.90;;;;;;5130016;28;20062;-62
2020/12/12 12:00:00;;;;;;;5.33;2.50;;;9.40;99.90;;;;;;5133295;28;20027;-62
2020/12/12 12:02:26;;;;;;;12.43;2.70;;;9.30;99.90;;;;;;5131304;28;20030;-63
2020/12/12 12:04:52;;;;;;;8.40;1.27;;;9.30;99.90;;;;;;5111461;28;20027;-63
2020/12/12 12:07:17;;;;;;;9.17;1.70;;;9.40;99.90;;;;;;5132629;28;20421;-62
2020/12/12 12:09:46;;;;;;;8.30;2.77;;;9.20;99.90;;;;;;5111235;28;20066;-63
2020/12/12 12:12:12;;;;;;;7.47;2.90;;;9.30;99.90;;;;;;5132628;28;20035;-63
2020/12/12 12:14:37;;;;;;;8.10;2.37;;;9.40;99.90;;;;;;5119831;28;20217;-63
2020/12/12 12:17:03;;;;;;;4.37;1.60;;;9.40;99.90;;;;;;5119008;28;20520;-63
2020/12/12 12:19:29;;;;;;;11.40;3.80;;;9.60;99.90;;;;;;5113237;28;20059;-63
2020/12/12 12:21:54;;;;;;;4.70;1.27;;;9.60;99.90;;;;;;5114318;28;20032;-62
2020/12/12 12:24:21;;;;;;;5.83;1.50;;;9.60;99.90;;;;;;5126627;28;20051;-63
2020/12/12 12:26:48;;;;;;;5.30;2.37;;;9.50;99.90;;;;;;5128567;28;20055;-63
2020/12/12 12:29:15;;;;;;;6.23;1.30;;;9.60;99.90;;;;;;5110637;28;20110;-63
2020/12/12 12:31:42;;;;;;;9.00;2.50;;;9.50;99.90;;;;;;5127438;28;20040;-64
2020/12/12 12:34:07;;;;;;;9.67;1.70;;;9.40;99.90;;;;;;5131623;28;20080;-64
2020/12/12 12:36:34;;;;;;;5.77;1.93;;;9.60;99.90;;;;;;5117257;28;20457;-63
2020/12/12 12:39:01;;;;;;;8.37;1.87;;;9.80;99.90;;;;;;5111727;28;20024;-63
2020/12/12 12:41:28;;;;;;;3.37;1.23;;;9.90;99.90;;;;;;5107769;28;20126;-63
2020/12/12 12:44:00;;;;;;;11.30;2.53;;;9.60;99.90;;;;;;5103348;28;20035;-63
2020/12/12 12:46:26;;;;;;;4.67;1.70;;;9.70;99.90;;;;;;5109302;28;20024;-63
2020/12/12 12:48:51;;;;;;;7.27;2.73;;;9.80;99.90;;;;;;5097279;28;20027;-63
2020/12/12 12:51:17;;;;;;;7.07;2.73;;;9.90;99.90;;;;;;5098646;28;20080;-64
2020/12/12 12:53:43;;;;;;;5.57;1.87;;;9.90;99.90;;;;;;5117289;28;20186;-63
2020/12/12 12:56:08;;;;;;;8.23;1.43;;;10.00;99.90;;;;;;5116804;28;20023;-63
2020/12/12 12:58:34;;;;;;;7.30;1.50;;;10.10;99.90;;;;;;5099568;28;20043;-64
2020/12/12 13:01:00;;;;;;;5.63;1.40;;;10.10;99.90;;;;;;5111851;28;20032;-64
2020/12/12 13:03:25;;;;;;;2.83;1.60;;;10.10;99.90;;;;;;5117235;28;20028;-64
2020/12/12 13:05:51;;;;;;;4.33;1.57;;;10.10;99.90;;;;;;5099647;28;20112;-64
2020/12/12 13:08:17;;;;;;;6.47;1.13;;;10.10;99.90;;;;;;5095097;28;20118;-64
2020/12/12 13:10:43;;;;;;;4.97;1.60;;;10.20;99.90;;;;;;5114822;28;20028;-64
2020/12/12 13:13:12;;;;;;;5.13;1.63;;;10.10;99.90;;;;;;5107109;28;20327;-64
2020/12/12 13:15:38;;;;;;;4.67;1.90;;;10.10;99.90;;;;;;5091447;28;20031;-63
2020/12/12 13:18:13;;;;;;;3.80;1.00;;;9.90;99.90;;;;;;5103041;28;20023;-64
2020/12/12 13:20:54;;;;;;;7.87;1.60;;;10.00;99.90;;;;;;5116579;28;20028;-63
2020/12/12 13:23:20;;;;;;;11.47;4.93;;;9.90;99.90;;;;;;5113354;28;20028;-64
2020/12/12 13:25:45;;;;;;;4.77;1.00;;;10.10;99.90;;;;;;5108879;28;20432;-63
2020/12/12 13:28:46;;;;;;;5.20;0.80;;;10.10;99.90;;;;;;5111523;28;20038;-64
2020/12/12 13:31:09;;;;;;;3.33;0.97;;;10.00;99.90;;;;;;5116440;28;20477;-60
2020/12/12 13:33:36;;;;;;;4.53;1.30;;;9.90;99.90;;;;;;5109073;28;20501;-64
2020/12/12 13:36:07;;;;;;;6.80;1.47;;;9.90;99.90;;;;;;5103289;28;20481;-64
2020/12/12 13:38:33;;;;;;;4.27;1.43;;;9.90;99.90;;;;;;5101219;28;20205;-63
2020/12/12 13:40:59;;;;;;;4.80;1.43;;;9.80;99.90;;;;;;5098127;28;20067;-63
2020/12/12 13:43:25;;;;;;;3.87;1.43;;;10.00;99.90;;;;;;5098087;28;20058;-63
2020/12/12 13:45:51;;;;;;;3.27;1.10;;;10.10;99.90;;;;;;5098907;28;20093;-64
2020/12/12 13:48:17;;;;;;;9.00;1.50;;;10.30;99.90;;;;;;5109442;28;20050;-63
2020/12/12 13:50:43;;;;;;;5.10;1.30;;;10.20;99.90;;;;;;5097649;28;20035;-63
2020/12/12 13:53:09;;;;;;;2.53;0.80;;;10.30;99.90;;;;;;5116232;28;20437;-63
2020/12/12 13:55:36;;;;;;;2.53;1.20;;;10.30;99.90;;;;;;5101357;28;20081;-63
2020/12/12 13:58:02;;;;;;;5.53;1.10;;;10.20;99.90;;;;;;5115397;28;20039;-63
2020/12/12 14:00:27;;;;;;;3.40;1.33;;;10.30;99.90;;;;;;5111185;28;20019;-63
2020/12/12 14:02:53;;;;;;;4.20;0.97;;;10.30;99.90;;;;;;5115819;28;20031;-63
2020/12/12 14:05:19;;;;;;;4.53;1.43;;;10.40;99.90;;;;;;5112788;28;20035;-63
2020/12/12 14:07:47;;;;;;;2.83;1.73;;;10.30;99.90;;;;;;5102398;28;20027;-63
2020/12/12 14:21:11;;;;;;;6.23;1.37;;;10.20;99.90;;;;;;5114227;28;20038;-62
2020/12/12 14:23:35;;;;;;;8.10;3.20;;;10.20;99.90;;;;;;5110335;28;20445;-62
2020/12/12 14:28:34;;;;;;;5.90;1.40;;;10.00;99.90;;;;;;5104234;28;20337;-62
2020/12/12 14:31:00;;;;;;;3.73;1.30;;;10.20;99.90;;;;;;5113833;28;20039;-63
2020/12/12 14:33:25;;;;;;;4.33;1.63;;;9.80;99.90;;;;;;5097362;28;20028;-63
2020/12/12 14:35:51;;;;;;;7.77;1.73;;;9.70;99.90;;;;;;5113789;28;20020;-63
2020/12/12 14:38:17;;;;;;;6.00;2.33;;;9.70;99.90;;;;;;5108354;28;20016;-64
2020/12/12 14:40:44;;;;;;;6.17;2.33;;;9.60;99.90;;;;;;5113194;28;20456;-63
2020/12/12 14:43:10;;;;;;;4.10;1.93;;;9.50;99.90;;;;;;5104147;28;20052;-64
2020/12/12 14:45:36;;;;;;;8.33;1.87;;;9.40;99.90;;;;;;5111775;28;20028;-64
2020/12/12 14:48:03;;;;;;;4.97;2.60;;;9.30;99.90;;;;;;5113499;28;20089;-59
2020/12/12 14:50:29;;;;;;;5.67;2.87;;;9.20;99.90;;;;;;5114213;28;20483;-59
2020/12/12 14:52:58;;;;;;;7.97;1.67;;;9.10;99.90;;;;;;5111340;28;20028;-59
2020/12/12 14:55:24;;;;;;;8.53;2.33;;;9.10;99.90;;;;;;5107555;28;20032;-58
2020/12/12 14:57:50;;;;;;;6.97;2.40;;;9.00;99.90;;;;;;5111695;28;20024;-58
2020/12/12 15:00:16;;;;;;;3.43;1.60;;;9.10;99.90;;;;;;5114150;28;20319;-59
2020/12/12 15:02:41;;;;;;;5.93;2.17;;;9.00;99.90;;;;;;5107220;28;20031;-59
2020/12/12 15:05:10;;;;;;;7.43;2.20;;;8.90;99.90;;;;;;5096642;28;20042;-59
2020/12/12 15:07:36;;;;;;;4.30;2.30;;;8.90;99.90;;;;;;5113989;28;20031;-59
2020/12/12 15:10:04;;;;;;;6.93;2.73;;;9.00;99.90;;;;;;5089743;28;20149;-59
2020/12/12 15:12:35;;;;;;;8.97;2.17;;;8.90;99.90;;;;;;5095944;28;20032;-58
2020/12/12 15:15:02;;;;;;;4.80;1.63;;;8.80;99.90;;;;;;5099899;28;20379;-60
2020/12/12 15:17:29;;;;;;;8.67;2.13;;;8.80;99.90;;;;;;5114118;28;20030;-60
2020/12/12 15:19:55;;;;;;;7.13;2.33;;;8.70;99.90;;;;;;5108120;28;20055;-61
2020/12/12 15:22:21;;;;;;;3.87;1.67;;;8.60;99.90;;;;;;5113911;28;20031;-60
2020/12/12 15:24:47;;;;;;;8.33;1.87;;;8.70;99.90;;;;;;5114755;28;20097;-60
2020/12/12 15:27:12;;;;;;;7.23;1.80;;;8.60;99.90;;;;;;5114418;28;20050;-59
2020/12/12 15:29:39;;;;;;;3.83;1.80;;;8.80;99.90;;;;;;5114559;28;20023;-60
2020/12/12 15:32:08;;;;;;;4.73;2.50;;;8.60;99.90;;;;;;5107449;28;20094;-60
2020/12/12 15:34:34;;;;;;;3.77;1.70;;;8.60;99.90;;;;;;5106463;28;20024;-60
2020/12/12 15:36:59;;;;;;;9.93;1.87;;;8.40;99.90;;;;;;5113799;28;20028;-60
2020/12/12 15:39:25;;;;;;;4.33;1.43;;;8.50;99.90;;;;;;5114009;28;20028;-60
2020/12/12 15:41:51;;;;;;;9.20;2.20;;;8.70;99.90;;;;;;5114829;28;20027;-60
2020/12/12 15:44:17;;;;;;;4.90;3.13;;;8.60;99.90;;;;;;5114779;28;20161;-61
2020/12/12 15:46:43;;;;;;;7.50;2.10;;;8.50;99.90;;;;;;5094245;28;20408;-60
2020/12/12 15:49:09;;;;;;;8.70;2.30;;;8.40;99.90;;;;;;5112843;28;20084;-60
2020/12/12 15:51:39;;;;;;;4.60;2.17;;;8.30;99.90;;;;;;5112962;28;20089;-60
2020/12/12 15:54:05;;;;;;;5.77;2.57;;;8.30;99.90;;;;;;5096181;28;20027;-60
2020/12/12 15:56:43;;;;;;;8.57;2.53;;;8.20;99.90;;;;;;5095521;28;20024;-59
2020/12/12 15:59:10;;;;;;;4.27;2.60;;;8.20;99.90;;;;;;5112462;28;20099;-60
2020/12/12 16:01:37;;;;;;;6.23;2.33;;;8.20;99.90;;;;;;5115207;28;20055;-60
2020/12/12 16:04:03;;;;;;;5.63;1.97;;;8.20;99.90;;;;;;5111431;28;20028;-60
2020/12/12 16:06:29;;;;;;;8.97;2.27;;;8.20;99.90;;;;;;5095316;28;20569;-59
2020/12/12 16:08:56;;;;;;;9.83;2.90;;;8.00;99.90;;;;;;5112101;28;20016;-59
2020/12/12 16:11:22;;;;;;;7.80;3.23;;;8.00;99.90;;;;;;5113888;28;20035;-59
2020/12/12 16:13:48;;;;;;;9.83;3.23;;;8.00;99.90;;;;;;5113679;28;20380;-59
2020/12/12 16:16:14;;;;;;;7.07;3.10;;;8.00;99.90;;;;;;5113095;28;20028;-59
2020/12/12 16:18:40;;;;;;;10.97;2.80;;;8.00;99.90;;;;;;5113091;28;20349;-59
2020/12/12 16:21:06;;;;;;;13.97;4.30;;;8.00;99.90;;;;;;5114879;28;20031;-59
2020/12/12 16:23:31;;;;;;;9.00;3.50;;;8.00;99.90;;;;;;5111324;28;20028;-59
2020/12/12 16:25:57;;;;;;;9.10;2.83;;;7.90;99.90;;;;;;5070206;28;20035;-59
2020/12/12 16:28:23;;;;;;;8.43;2.80;;;7.80;99.90;;;;;;5114131;28;20065;-59
2020/12/12 16:30:48;;;;;;;10.13;3.20;;;7.80;99.90;;;;;;5116387;28;20329;-59
2020/12/12 16:33:14;;;;;;;9.03;3.10;;;7.80;99.90;;;;;;5118639;28;20067;-59
2020/12/12 16:35:40;;;;;;;14.07;4.60;;;7.80;99.90;;;;;;5104090;28;20044;-59
2020/12/12 16:38:06;;;;;;;12.03;3.17;;;7.80;99.90;;;;;;5080529;28;20107;-60
2020/12/12 16:40:32;;;;;;;10.67;3.00;;;7.80;99.90;;;;;;5079987;28;20443;-61
2020/12/12 16:42:58;;;;;;;6.50;3.13;;;7.80;99.90;;;;;;5104733;28;20318;-60
2020/12/12 16:45:27;;;;;;;7.90;3.57;;;7.70;99.90;;;;;;5117795;28;20028;-60
2020/12/12 16:47:53;;;;;;;10.07;3.00;;;7.70;99.90;;;;;;5117728;28;20430;-60
2020/12/12 16:50:19;;;;;;;9.33;3.37;;;7.60;99.90;;;;;;5117410;28;20086;-60
2020/12/12 16:52:46;;;;;;;14.50;4.93;;;7.50;99.90;;;;;;5098402;28;20096;-61
2020/12/12 16:55:17;;;;;;;9.47;3.50;;;7.50;99.90;;;;;;5079998;28;20016;-60
2020/12/12 16:57:44;;;;;;;8.37;3.83;;;7.50;99.90;;;;;;5097462;28;20020;-60
2020/12/12 17:00:13;;;;;;;11.40;4.17;;;7.60;99.90;;;;;;5098241;28;20047;-60
2020/12/12 17:02:39;;;;;;;10.73;4.40;;;7.30;99.90;;;;;;5097691;28;20024;-61
2020/12/12 17:05:06;;;;;;;13.80;5.07;;;7.40;99.90;;;;;;5097810;28;20024;-60
2020/12/12 17:07:39;;;;;;;13.77;5.47;;;7.60;99.90;;;;;;5100031;28;20023;-60
2020/12/12 17:10:05;;;;;;;8.50;3.05;;;7.40;99.90;;;;;;5112990;28;20030;-60
2020/12/12 17:12:30;;;;;;;9.57;3.03;;;7.50;99.90;;;;;;5117405;28;20111;-60
2020/12/12 17:14:56;;;;;;;12.60;3.77;;;7.50;99.90;;;;;;5117564;28;20024;-60
2020/12/12 17:17:22;;;;;;;12.37;4.07;;;7.40;99.90;;;;;;5117818;28;20080;-60
2020/12/12 17:19:47;;;;;;;8.57;3.13;;;7.50;99.90;;;;;;5117203;28;20020;-59
2020/12/12 17:22:13;;;;;;;6.87;2.90;;;7.60;99.90;;;;;;5118031;28;20378;-60
2020/12/12 17:24:38;;;;;;;9.03;3.83;;;7.50;99.90;;;;;;5114163;28;20023;-59
2020/12/12 17:27:04;;;;;;;13.63;4.90;;;7.50;99.90;;;;;;5093694;28;20028;-59
2020/12/12 17:29:30;;;;;;;8.37;4.03;;;7.40;99.90;;;;;;5105395;28;20031;-60
2020/12/12 17:31:55;;;;;;;9.87;3.20;;;7.40;99.90;;;;;;5099585;28;20052;-60
2020/12/12 17:34:21;;;;;;;9.93;4.00;;;7.40;99.90;;;;;;5116127;28;20027;-60
2020/12/12 17:36:49;;;;;;;6.73;3.13;;;7.30;99.90;;;;;;5112019;28;20051;-60
2020/12/12 17:39:17;;;;;;;12.67;3.23;;;7.20;99.90;;;;;;5095078;28;20019;-60
2020/12/12 17:41:45;;;;;;;11.43;3.20;;;7.20;99.90;;;;;;5105851;28;20039;-60
2020/12/12 17:44:12;;;;;;;10.67;3.97;;;7.10;99.90;;;;;;5105930;28;20333;-60
2020/12/12 17:46:38;;;;;;;9.93;4.17;;;7.00;99.90;;;;;;5116907;28;20480;-60
2020/12/12 17:49:06;;;;;;;15.07;5.67;;;6.90;99.90;;;;;;5113658;28;20058;-60
2020/12/12 17:51:33;;;;;;;8.33;4.03;;;7.00;99.90;;;;;;5112087;28;20024;-60
2020/12/12 17:54:07;;;;;;;14.77;3.63;;;7.10;99.90;;;;;;5114537;28;20349;-60
2020/12/12 17:56:33;;;;;;;14.25;6.45;;;7.00;99.90;;;;;;5086626;28;20024;-60
2020/12/12 17:58:59;;;;;;;12.10;4.40;;;7.10;99.90;;;;;;5112068;28;20036;-60
2020/12/12 18:01:25;;;;;;;7.90;3.23;;;7.10;99.90;;;;;;5117827;28;20036;-60
2020/12/12 18:03:50;;;;;;;7.47;3.93;;;7.00;99.90;;;;;;5116847;28;20024;-61
2020/12/12 18:06:16;;;;;;;10.03;4.30;;;6.90;99.90;;;;;;5117422;28;20031;-59
2020/12/12 18:08:42;;;;;;;8.90;3.50;;;6.90;99.90;;;;;;5117091;28;20028;-60
2020/12/12 18:11:08;;;;;;;8.90;4.43;;;6.90;99.90;;;;;;5117655;28;20072;-61
2020/12/12 18:13:34;;;;;;;18.83;6.37;;;6.90;99.90;;;;;;5116803;28;20023;-61
2020/12/12 18:15:59;;;;;;;13.93;7.43;;;6.90;99.90;;;;;;5116630;28;20069;-61
2020/12/12 18:18:25;;;;;;;11.63;5.17;;;7.00;99.90;;;;;;5116997;28;20019;-61
2020/12/12 18:20:51;;;;;;;9.67;4.40;;;6.90;99.90;;;;;;5111255;28;20077;-61
2020/12/12 18:23:17;;;;;;;11.77;5.37;;;6.90;99.90;;;;;;5100502;28;20055;-61
2020/12/12 18:25:43;;;;;;;10.93;4.70;;;6.90;99.90;;;;;;5103493;28;20111;-61
2020/12/12 18:28:09;;;;;;;14.13;4.37;;;6.80;99.90;;;;;;5105542;28;20119;-61
2020/12/12 18:30:35;;;;;;;9.53;4.30;;;6.80;99.90;;;;;;5114569;28;20035;-60
2020/12/12 18:33:00;;;;;;;19.90;6.60;;;6.70;99.90;;;;;;5098038;28;20047;-60
2020/12/12 18:35:30;;;;;;;8.60;3.87;;;6.90;99.90;;;;;;5110256;28;20031;-61
2020/12/12 18:37:58;;;;;;;9.57;4.30;;;6.70;99.90;;;;;;5107493;28;20032;-61
2020/12/12 18:40:24;;;;;;;10.63;3.40;;;6.60;99.90;;;;;;5115623;28;20299;-61
2020/12/12 18:43:02;;;;;;;11.23;4.53;;;6.50;99.90;;;;;;5113232;28;20411;-61
2020/12/12 18:45:28;;;;;;;10.43;5.10;;;6.60;99.90;;;;;;5112779;28;20084;-61
2020/12/12 18:47:56;;;;;;;13.00;4.83;;;6.70;99.90;;;;;;5095323;28;20409;-61
2020/12/12 18:50:23;;;;;;;21.23;8.77;;;6.70;99.90;;;;;;5095765;28;20024;-61
2020/12/12 18:52:49;;;;;;;16.47;6.17;;;6.70;99.90;;;;;;5095745;28;20020;-61
2020/12/12 18:55:15;;;;;;;8.70;3.80;;;6.60;99.90;;;;;;5077773;28;20426;-60
2020/12/12 18:57:42;;;;;;;12.10;5.53;;;6.60;99.90;;;;;;5095850;28;20028;-62
2020/12/12 19:00:10;;;;;;;8.83;4.40;;;6.50;99.90;;;;;;5095469;28;20024;-62
2020/12/12 19:02:36;;;;;;;14.77;4.40;;;6.40;99.90;;;;;;5095816;28;20026;-61
2020/12/12 19:05:03;;;;;;;11.57;3.87;;;6.40;99.90;;;;;;5095773;28;20024;-61
2020/12/12 19:07:32;;;;;;;16.03;4.63;;;6.40;99.90;;;;;;5096065;28;20472;-61
2020/12/12 19:09:57;;;;;;;11.47;4.43;;;6.50;99.90;;;;;;5096021;28;20054;-62
2020/12/12 19:12:23;;;;;;;10.17;4.43;;;6.30;99.90;;;;;;5095498;28;20020;-61
2020/12/12 19:14:49;;;;;;;19.03;7.27;;;6.20;99.90;;;;;;5096099;28;20073;-62
2020/12/12 19:17:14;;;;;;;17.73;7.87;;;6.10;99.90;;;;;;5095208;28;20027;-61
2020/12/12 19:19:40;;;;;;;27.07;14.03;;;6.20;99.90;;;;;;5095871;28;20036;-61
2020/12/12 19:22:11;;;;;;;18.83;9.30;;;6.10;99.90;;;;;;5097167;28;20023;-61
2020/12/12 19:24:40;;;;;;;20.57;7.93;;;6.00;99.90;;;;;;5095841;28;20023;-61
2020/12/12 19:27:05;;;;;;;15.30;6.50;;;5.80;99.90;;;;;;5095551;28;20315;-61
2020/12/12 19:29:35;;;;;;;15.93;9.43;;;5.80;99.90;;;;;;5095728;28;20031;-61
2020/12/12 19:32:03;;;;;;;15.27;7.53;;;5.70;99.90;;;;;;5094682;28;20047;-62
2020/12/12 19:34:29;;;;;;;14.50;7.30;;;5.80;99.90;;;;;;5095153;28;20399;-61
2020/12/12 19:36:55;;;;;;;13.47;8.27;;;5.80;99.90;;;;;;5095597;28;20333;-61
2020/12/12 19:39:21;;;;;;;22.10;10.10;;;5.80;99.90;;;;;;5095352;28;20024;-61
2020/12/12 19:41:47;;;;;;;19.93;9.43;;;5.80;99.90;;;;;;5095456;28;20430;-62
2020/12/12 19:44:13;;;;;;;20.70;9.27;;;5.70;99.90;;;;;;5094895;28;20081;-61
2020/12/12 19:46:39;;;;;;;14.47;7.33;;;5.70;99.90;;;;;;5077543;28;20086;-62
2020/12/12 19:49:05;;;;;;;14.43;6.97;;;5.70;99.90;;;;;;5095941;28;20482;-62
2020/12/12 19:51:30;;;;;;;17.53;7.70;;;5.60;99.90;;;;;;5095613;28;20024;-62
2020/12/12 19:53:56;;;;;;;17.27;10.17;;;5.60;99.90;;;;;;5099790;28;20028;-61
2020/12/12 19:56:23;;;;;;;31.70;15.20;;;5.40;99.90;;;;;;5099219;28;20111;-62
2020/12/12 19:58:49;;;;;;;31.60;15.90;;;5.30;99.90;;;;;;5099508;28;20020;-61
2020/12/12 20:01:16;;;;;;;30.20;18.07;;;5.20;99.90;;;;;;5099018;28;20031;-62
2020/12/12 20:03:42;;;;;;;39.03;21.27;;;5.20;99.90;;;;;;5099579;28;20031;-62
2020/12/12 20:06:09;;;;;;;35.83;20.10;;;5.10;99.90;;;;;;5099358;28;20028;-61
2020/12/12 20:08:35;;;;;;;33.27;19.27;;;5.10;99.90;;;;;;5099269;28;20027;-61
2020/12/12 20:11:02;;;;;;;33.07;16.43;;;5.10;99.90;;;;;;5099277;28;20056;-61
2020/12/12 20:13:27;;;;;;;32.43;19.27;;;5.10;99.90;;;;;;5099071;28;20031;-61
2020/12/12 20:15:53;;;;;;;37.07;20.73;;;5.00;99.90;;;;;;5099161;28;20488;-61
2020/12/12 20:18:20;;;;;;;31.63;15.77;;;5.00;99.90;;;;;;5089564;28;20028;-62
2020/12/12 20:20:46;;;;;;;26.93;13.10;;;4.90;99.90;;;;;;5099138;28;20150;-62
2020/12/12 20:23:14;;;;;;;28.17;13.47;;;4.90;99.90;;;;;;5111577;28;20299;-62
2020/12/12 20:25:40;;;;;;;35.37;16.43;;;4.90;99.90;;;;;;5112930;28;20449;-61
2020/12/12 20:28:05;;;;;;;30.07;18.00;;;4.90;99.90;;;;;;5080461;28;20032;-62
2020/12/12 20:30:31;;;;;;;44.70;21.20;;;4.80;99.90;;;;;;5099031;28;20024;-61
2020/12/12 20:32:58;;;;;;;40.57;19.53;;;4.70;99.90;;;;;;5099292;28;20044;-62
2020/12/12 20:35:28;;;;;;;32.87;15.57;;;4.60;99.90;;;;;;5098827;28;20097;-61
2020/12/12 20:37:54;;;;;;;31.80;19.17;;;4.70;99.90;;;;;;5099153;28;20016;-62
2020/12/12 20:40:21;;;;;;;42.87;21.73;;;4.70;99.90;;;;;;5098530;28;20135;-62
2020/12/12 20:42:58;;;;;;;32.07;19.33;;;4.90;99.90;;;;;;5098603;28;20522;-62
2020/12/12 20:45:25;;;;;;;36.80;20.63;;;4.80;99.90;;;;;;5098721;28;20469;-61
2020/12/12 20:47:51;;;;;;;33.37;17.80;;;4.70;99.90;;;;;;5098242;28;20457;-61
2020/12/12 20:50:21;;;;;;;34.07;17.90;;;4.70;99.90;;;;;;5098582;28;20028;-60
2020/12/12 20:52:48;;;;;;;34.67;18.27;;;4.60;99.90;;;;;;5098852;28;20024;-61
2020/12/12 20:55:14;;;;;;;38.43;18.60;;;4.60;99.90;;;;;;5098930;28;20051;-62
2020/12/12 20:57:41;;;;;;;30.90;18.10;;;4.50;99.90;;;;;;5097805;28;20402;-61
2020/12/12 21:00:09;;;;;;;26.27;15.00;;;4.40;99.90;;;;;;5079951;28;20354;-61
2020/12/12 21:02:35;;;;;;;29.77;16.77;;;4.40;99.90;;;;;;5079595;28;20122;-61
2020/12/12 21:05:01;;;;;;;47.37;19.57;;;4.40;99.90;;;;;;5098068;28;20028;-62
2020/12/12 21:07:27;;;;;;;32.20;19.83;;;4.40;99.90;;;;;;5098744;28;20035;-62
2020/12/12 21:09:53;;;;;;;34.00;19.43;;;4.40;99.90;;;;;;5098189;28;20460;-62
2020/12/12 21:12:19;;;;;;;34.07;20.43;;;4.30;99.90;;;;;;5098213;28;20056;-61
2020/12/12 21:14:45;;;;;;;36.90;23.23;;;4.30;99.90;;;;;;5098404;28;20052;-61
2020/12/12 21:17:10;;;;;;;58.47;29.03;;;4.30;99.90;;;;;;5098138;28;20024;-62
2020/12/12 21:19:36;;;;;;;63.57;37.93;;;4.20;99.90;;;;;;5097488;28;20023;-61
2020/12/12 21:22:02;;;;;;;64.97;39.37;;;4.20;99.90;;;;;;5100501;28;20101;-61
2020/12/12 21:24:28;;;;;;;70.47;40.97;;;4.10;99.90;;;;;;5104679;28;20089;-61
2020/12/12 21:26:54;;;;;;;53.50;28.70;;;4.10;99.90;;;;;;5097982;28;20032;-62
2020/12/12 21:29:20;;;;;;;40.53;23.60;;;4.00;99.90;;;;;;5097859;28;20029;-62
2020/12/12 21:31:49;;;;;;;46.27;25.87;;;4.10;99.90;;;;;;5097771;28;20127;-61
2020/12/12 21:34:15;;;;;;;45.90;27.13;;;4.10;99.90;;;;;;5097856;28;20040;-61
2020/12/12 21:36:41;;;;;;;39.23;23.77;;;4.10;99.90;;;;;;5097607;28;20056;-62
2020/12/12 21:39:08;;;;;;;43.87;27.30;;;4.00;99.90;;;;;;5098230;28;20138;-61
2020/12/12 21:41:38;;;;;;;49.47;28.20;;;4.00;99.90;;;;;;5098174;28;20445;-62
2020/12/12 21:44:05;;;;;;;45.10;27.60;;;4.00;99.90;;;;;;5097723;28;20107;-61
2020/12/12 21:46:30;;;;;;;44.93;27.70;;;3.90;99.90;;;;;;5097915;28;20023;-61
2020/12/12 21:48:56;;;;;;;52.57;27.93;;;3.90;99.90;;;;;;5097217;28;20102;-61
2020/12/12 21:51:21;;;;;;;52.27;29.43;;;3.90;99.90;;;;;;5097605;28;20119;-61
2020/12/12 21:53:47;;;;;;;49.37;27.87;;;3.90;99.90;;;;;;5079259;28;20024;-62
2020/12/12 21:56:13;;;;;;;49.83;28.37;;;3.90;99.90;;;;;;5097914;28;20063;-61
2020/12/12 21:58:39;;;;;;;57.87;30.30;;;3.90;99.90;;;;;;5062511;28;20362;-62
2020/12/12 22:01:04;;;;;;;50.93;28.87;;;3.80;99.90;;;;;;5097565;28;20024;-61
2020/12/12 22:03:33;;;;;;;62.00;33.27;;;3.80;99.90;;;;;;5097175;28;20024;-62
2020/12/12 22:06:00;;;;;;;49.93;26.97;;;3.80;99.90;;;;;;5097097;28;20031;-61
2020/12/12 22:08:27;;;;;;;56.07;30.10;;;3.80;99.90;;;;;;5097455;28;20441;-61
2020/12/12 22:10:53;;;;;;;53.20;27.07;;;3.90;99.90;;;;;;5096626;28;20426;-61
2020/12/12 22:13:23;;;;;;;45.70;25.10;;;3.90;99.90;;;;;;5096859;28;20031;-61
2020/12/12 22:15:49;;;;;;;53.73;27.90;;;3.90;99.90;;;;;;5095697;28;20118;-61
2020/12/12 22:18:14;;;;;;;46.67;26.53;;;3.90;99.90;;;;;;5096746;28;20039;-61
2020/12/12 22:20:41;;;;;;;49.90;26.43;;;3.80;99.90;;;;;;5096348;28;20016;-61
2020/12/12 22:23:08;;;;;;;50.97;27.27;;;3.80;99.90;;;;;;5103292;28;20020;-61
2020/12/12 22:25:34;;;;;;;52.03;27.07;;;3.70;99.90;;;;;;5097002;28;20020;-62
2020/12/12 22:28:00;;;;;;;51.53;30.73;;;3.70;99.90;;;;;;5078367;28;20115;-61
2020/12/12 22:30:26;;;;;;;44.23;25.30;;;3.60;99.90;;;;;;5096544;28;20124;-61
2020/12/12 22:32:52;;;;;;;36.73;21.00;;;3.60;99.90;;;;;;5096099;28;20041;-61
2020/12/12 22:35:19;;;;;;;34.90;17.37;;;3.60;99.90;;;;;;5096577;28;20019;-61
2020/12/12 22:37:47;;;;;;;33.63;18.50;;;3.70;99.90;;;;;;5096528;28;20073;-61
2020/12/12 22:40:16;;;;;;;36.80;18.40;;;3.70;99.90;;;;;;5096324;28;20023;-61
2020/12/12 22:42:43;;;;;;;36.37;19.33;;;3.70;99.90;;;;;;5096326;28;20028;-61
2020/12/12 22:45:10;;;;;;;34.27;18.90;;;3.70;99.90;;;;;;5096062;28;20034;-61
2020/12/12 22:47:36;;;;;;;27.33;18.47;;;3.60;99.90;;;;;;5078147;28;20020;-61
2020/12/12 22:50:03;;;;;;;36.40;18.63;;;3.50;99.90;;;;;;5096157;28;20028;-61
2020/12/12 22:52:34;;;;;;;27.33;17.07;;;3.50;99.90;;;;;;5096797;28;20016;-61
2020/12/12 22:55:00;;;;;;;33.67;18.70;;;3.50;99.90;;;;;;5095911;28;20051;-62
2020/12/12 22:57:25;;;;;;;28.87;16.80;;;3.50;99.90;;;;;;5096662;28;20051;-61
2020/12/12 22:59:51;;;;;;;27.70;16.07;;;3.60;99.90;;;;;;5096737;28;20020;-61
2020/12/12 23:02:17;;;;;;;26.27;15.37;;;3.50;99.90;;;;;;5096153;28;20291;-61
2020/12/12 23:04:42;;;;;;;30.13;16.27;;;3.50;99.90;;;;;;5078378;28;20334;-61
2020/12/12 23:07:08;;;;;;;29.10;16.90;;;3.50;99.90;;;;;;5095863;28;20342;-62
2020/12/12 23:09:34;;;;;;;29.03;16.37;;;3.50;99.90;;;;;;5096122;28;20045;-62
2020/12/12 23:12:00;;;;;;;26.20;16.10;;;3.50;99.90;;;;;;5060180;28;20055;-61
2020/12/12 23:14:26;;;;;;;29.33;16.10;;;3.50;99.90;;;;;;5095651;28;20449;-61
2020/12/12 23:16:53;;;;;;;55.50;19.03;;;3.50;99.90;;;;;;5095906;28;20028;-61
2020/12/12 23:19:19;;;;;;;27.73;16.13;;;3.50;99.90;;;;;;5095472;28;20027;-61
2020/12/12 23:21:45;;;;;;;28.20;18.03;;;3.50;99.90;;;;;;5095919;28;20035;-61
2020/12/12 23:24:11;;;;;;;28.67;18.47;;;3.60;99.90;;;;;;5099045;28;20024;-61
2020/12/12 23:26:38;;;;;;;29.37;15.80;;;3.50;99.90;;;;;;5095931;28;20024;-62
2020/12/12 23:29:06;;;;;;;32.90;16.43;;;3.50;99.90;;;;;;5095602;28;20020;-62
2020/12/12 23:31:36;;;;;;;28.00;15.97;;;3.50;99.90;;;;;;5095814;28;20044;-61
2020/12/12 23:34:03;;;;;;;31.93;17.43;;;3.50;99.90;;;;;;5096048;28;20330;-62
2020/12/12 23:36:29;;;;;;;29.57;15.80;;;3.60;99.90;;;;;;5095878;28;20020;-61
2020/12/12 23:38:55;;;;;;;25.80;14.60;;;3.70;99.90;;;;;;5095734;28;20151;-61
2020/12/12 23:41:21;;;;;;;30.20;14.83;;;3.70;99.90;;;;;;5095541;28;20028;-61
2020/12/12 23:43:47;;;;;;;26.70;13.40;;;3.70;99.90;;;;;;5078090;28;20035;-61
2020/12/12 23:46:13;;;;;;;29.63;13.17;;;3.70;99.90;;;;;;5077584;28;20025;-61
2020/12/12 23:48:39;;;;;;;19.63;11.60;;;3.80;99.90;;;;;;5095371;28;20469;-62
2020/12/12 23:51:06;;;;;;;22.10;12.63;;;3.80;99.90;;;;;;5077289;28;20036;-62
2020/12/12 23:53:31;;;;;;;22.13;12.60;;;3.80;99.90;;;;;;5095468;28;20090;-61
2020/12/12 23:55:57;;;;;;;21.37;12.77;;;3.80;99.90;;;;;;5095647;28;20028;-62
2020/12/12 23:58:23;;;;;;;40.40;23.00;;;3.80;99.90;;;;;;5095516;28;20032;-62
